sensor_id;sensor_type;location;lat;lon;timestamp;pressure;altitude;pressure_sealevel;temperature;humidity
45040;BME280;30778;53.574;7.770;2022-11-10T00:00:22;101304.69;;;6.96;58.07
45040;BME280;30778;53.574;7.770;2022-11-10T00:03:10;101319.88;;;7.17;58.21
45040;BME280;30778;53.574;7.770;2022-11-10T00:05:55;101319.22;;;7.06;58.80
45040;BME280;30778;53.574;7.770;2022-11-10T00:08:39;101321.16;;;6.93;59.67
45040;BME280;30778;53.574;7.770;2022-11-10T00:11:22;101323.00;;;6.35;62.16
45040;BME280;30778;53.574;7.770;2022-11-10T00:14:07;101334.72;;;7.12;59.27
45040;BME280;30778;53.574;7.770;2022-11-10T00:17:11;101333.78;;;7.15;59.49
45040;BME280;30778;53.574;7.770;2022-11-10T00:19:55;101338.25;;;7.08;59.26
45040;BME280;30778;53.574;7.770;2022-11-10T00:22:39;101337.81;;;7.31;58.61
45040;BME280;30778;53.574;7.770;2022-11-10T00:25:24;101347.53;;;6.70;60.59
45040;BME280;30778;53.574;7.770;2022-11-10T00:28:09;101345.13;;;6.59;60.63
45040;BME280;30778;53.574;7.770;2022-11-10T00:30:53;101342.16;;;6.82;60.06
45040;BME280;30778;53.574;7.770;2022-11-10T00:33:38;101349.38;;;6.65;60.61
45040;BME280;30778;53.574;7.770;2022-11-10T00:36:23;101342.41;;;7.17;59.11
45040;BME280;30778;53.574;7.770;2022-11-10T00:39:07;101340.28;;;6.90;59.77
45040;BME280;30778;53.574;7.770;2022-11-10T00:41:51;101350.75;;;6.30;61.69
45040;BME280;30778;53.574;7.770;2022-11-10T00:44:35;101351.75;;;6.79;59.94
45040;BME280;30778;53.574;7.770;2022-11-10T00:47:19;101360.47;;;6.13;62.30
45040;BME280;30778;53.574;7.770;2022-11-10T00:50:04;101377.19;;;6.57;61.08
45040;BME280;30778;53.574;7.770;2022-11-10T00:52:48;101381.47;;;5.94;62.96
45040;BME280;30778;53.574;7.770;2022-11-10T00:55:32;101387.50;;;6.61;60.38
45040;BME280;30778;53.574;7.770;2022-11-10T00:58:16;101404.66;;;6.73;60.07
45040;BME280;30778;53.574;7.770;2022-11-10T01:01:03;101406.50;;;7.19;58.62
45040;BME280;30778;53.574;7.770;2022-11-10T01:03:47;101416.38;;;6.99;59.34
45040;BME280;30778;53.574;7.770;2022-11-10T01:06:32;101413.78;;;6.97;59.41
45040;BME280;30778;53.574;7.770;2022-11-10T01:09:16;101403.41;;;7.47;58.22
45040;BME280;30778;53.574;7.770;2022-11-10T01:12:00;101408.31;;;7.16;58.98
45040;BME280;30778;53.574;7.770;2022-11-10T01:14:46;101429.06;;;7.17;58.82
45040;BME280;30778;53.574;7.770;2022-11-10T01:17:31;101435.00;;;7.24;58.82
45040;BME280;30778;53.574;7.770;2022-11-10T01:20:15;101429.56;;;7.38;58.54
45040;BME280;30778;53.574;7.770;2022-11-10T01:22:59;101431.72;;;7.14;58.54
45040;BME280;30778;53.574;7.770;2022-11-10T01:25:46;101433.66;;;7.03;59.53
45040;BME280;30778;53.574;7.770;2022-11-10T01:28:31;101429.34;;;7.00;59.38
45040;BME280;30778;53.574;7.770;2022-11-10T01:31:18;101432.50;;;7.19;58.58
45040;BME280;30778;53.574;7.770;2022-11-10T01:34:02;101431.72;;;7.16;58.41
45040;BME280;30778;53.574;7.770;2022-11-10T01:36:46;101431.91;;;7.02;59.46
45040;BME280;30778;53.574;7.770;2022-11-10T01:39:30;101443.19;;;7.01;59.71
45040;BME280;30778;53.574;7.770;2022-11-10T01:42:14;101445.66;;;7.10;59.75
45040;BME280;30778;53.574;7.770;2022-11-10T01:48:08;101434.72;;;7.42;58.76
45040;BME280;30778;53.574;7.770;2022-11-10T01:50:54;101445.47;;;7.22;59.73
45040;BME280;30778;53.574;7.770;2022-11-10T01:53:44;101454.72;;;6.84;61.40
45040;BME280;30778;53.574;7.770;2022-11-10T01:56:31;101438.09;;;7.46;59.38
45040;BME280;30778;53.574;7.770;2022-11-10T01:59:23;101455.81;;;7.25;59.96
45040;BME280;30778;53.574;7.770;2022-11-10T02:02:15;101435.47;;;7.47;59.41
45040;BME280;30778;53.574;7.770;2022-11-10T02:05:03;101446.41;;;7.17;60.38
45040;BME280;30778;53.574;7.770;2022-11-10T02:07:49;101442.97;;;7.15;60.54
45040;BME280;30778;53.574;7.770;2022-11-10T02:10:34;101439.69;;;7.05;60.44
45040;BME280;30778;53.574;7.770;2022-11-10T02:13:20;101435.94;;;7.20;60.16
45040;BME280;30778;53.574;7.770;2022-11-10T02:16:04;101441.03;;;7.27;59.99
45040;BME280;30778;53.574;7.770;2022-11-10T02:18:48;101444.50;;;7.26;59.79
45040;BME280;30778;53.574;7.770;2022-11-10T02:21:32;101454.91;;;6.72;61.51
45040;BME280;30778;53.574;7.770;2022-11-10T02:24:16;101447.00;;;6.80;61.97
45040;BME280;30778;53.574;7.770;2022-11-10T02:27:01;101450.00;;;7.08;60.72
45040;BME280;30778;53.574;7.770;2022-11-10T02:29:45;101451.19;;;7.41;59.11
45040;BME280;30778;53.574;7.770;2022-11-10T02:32:29;101466.06;;;6.77;61.52
45040;BME280;30778;53.574;7.770;2022-11-10T02:35:13;101470.81;;;7.06;60.48
45040;BME280;30778;53.574;7.770;2022-11-10T02:37:57;101477.63;;;6.58;62.06
45040;BME280;30778;53.574;7.770;2022-11-10T02:40:41;101487.81;;;6.73;61.06
45040;BME280;30778;53.574;7.770;2022-11-10T02:43:25;101481.13;;;7.14;59.51
45040;BME280;30778;53.574;7.770;2022-11-10T02:46:09;101468.97;;;7.15;58.88
45040;BME280;30778;53.574;7.770;2022-11-10T02:48:53;101478.22;;;6.77;60.51
45040;BME280;30778;53.574;7.770;2022-11-10T02:51:37;101477.78;;;6.45;61.02
45040;BME280;30778;53.574;7.770;2022-11-10T02:54:22;101480.31;;;6.50;61.38
45040;BME280;30778;53.574;7.770;2022-11-10T02:57:06;101495.28;;;6.29;61.97
45040;BME280;30778;53.574;7.770;2022-11-10T02:59:51;101493.16;;;6.61;60.55
45040;BME280;30778;53.574;7.770;2022-11-10T03:02:36;101504.66;;;6.41;61.02
45040;BME280;30778;53.574;7.770;2022-11-10T03:05:20;101509.72;;;6.54;60.78
45040;BME280;30778;53.574;7.770;2022-11-10T03:08:04;101508.06;;;6.46;61.04
45040;BME280;30778;53.574;7.770;2022-11-10T03:10:52;101502.69;;;6.59;60.30
45040;BME280;30778;53.574;7.770;2022-11-10T03:13:37;101515.75;;;6.56;60.77
45040;BME280;30778;53.574;7.770;2022-11-10T03:16:21;101515.28;;;6.17;62.02
45040;BME280;30778;53.574;7.770;2022-11-10T03:19:05;101521.13;;;6.39;61.40
45040;BME280;30778;53.574;7.770;2022-11-10T03:21:48;101518.47;;;6.46;60.54
45040;BME280;30778;53.574;7.770;2022-11-10T03:24:32;101521.31;;;6.20;61.23
45040;BME280;30778;53.574;7.770;2022-11-10T03:27:16;101524.19;;;5.96;62.51
45040;BME280;30778;53.574;7.770;2022-11-10T03:30:00;101524.88;;;6.10;62.18
45040;BME280;30778;53.574;7.770;2022-11-10T03:32:44;101533.47;;;6.17;61.72
45040;BME280;30778;53.574;7.770;2022-11-10T03:35:29;101536.72;;;6.37;61.46
45040;BME280;30778;53.574;7.770;2022-11-10T03:38:13;101535.56;;;5.84;62.64
45040;BME280;30778;53.574;7.770;2022-11-10T03:40:57;101540.88;;;5.69;63.44
45040;BME280;30778;53.574;7.770;2022-11-10T03:43:41;101548.16;;;6.19;61.52
45040;BME280;30778;53.574;7.770;2022-11-10T03:46:25;101548.84;;;6.37;61.06
45040;BME280;30778;53.574;7.770;2022-11-10T03:49:09;101550.56;;;6.39;60.62
45040;BME280;30778;53.574;7.770;2022-11-10T03:51:53;101556.06;;;6.08;61.75
45040;BME280;30778;53.574;7.770;2022-11-10T03:54:36;101562.84;;;6.20;61.32
45040;BME280;30778;53.574;7.770;2022-11-10T03:57:20;101564.22;;;5.69;62.92
45040;BME280;30778;53.574;7.770;2022-11-10T04:00:05;101562.06;;;6.15;61.79
45040;BME280;30778;53.574;7.770;2022-11-10T04:02:50;101574.50;;;5.79;62.66
45040;BME280;30778;53.574;7.770;2022-11-10T04:05:34;101575.44;;;5.67;63.38
45040;BME280;30778;53.574;7.770;2022-11-10T04:08:37;101583.03;;;5.94;62.41
45040;BME280;30778;53.574;7.770;2022-11-10T04:11:40;101593.94;;;6.31;61.03
45040;BME280;30778;53.574;7.770;2022-11-10T04:14:42;101591.81;;;5.74;62.89
45040;BME280;30778;53.574;7.770;2022-11-10T04:17:49;101594.84;;;6.21;61.30
45040;BME280;30778;53.574;7.770;2022-11-10T04:20:34;101594.00;;;6.20;61.23
45040;BME280;30778;53.574;7.770;2022-11-10T04:23:18;101604.44;;;6.13;61.20
45040;BME280;30778;53.574;7.770;2022-11-10T04:26:13;101609.53;;;6.28;61.58
45040;BME280;30778;53.574;7.770;2022-11-10T04:29:14;101609.53;;;6.23;61.35
45040;BME280;30778;53.574;7.770;2022-11-10T04:31:59;101612.13;;;6.28;61.22
45040;BME280;30778;53.574;7.770;2022-11-10T04:34:43;101614.72;;;6.31;61.18
45040;BME280;30778;53.574;7.770;2022-11-10T04:37:27;101616.50;;;6.20;61.25
45040;BME280;30778;53.574;7.770;2022-11-10T04:40:11;101623.41;;;6.21;61.74
45040;BME280;30778;53.574;7.770;2022-11-10T04:42:55;101627.75;;;6.19;61.00
45040;BME280;30778;53.574;7.770;2022-11-10T04:45:39;101623.69;;;5.93;62.10
45040;BME280;30778;53.574;7.770;2022-11-10T04:48:24;101611.44;;;6.07;62.09
45040;BME280;30778;53.574;7.770;2022-11-10T04:51:08;101623.59;;;6.02;61.77
45040;BME280;30778;53.574;7.770;2022-11-10T04:53:52;101627.31;;;5.67;62.96
45040;BME280;30778;53.574;7.770;2022-11-10T04:56:37;101633.00;;;6.13;61.88
45040;BME280;30778;53.574;7.770;2022-11-10T04:59:22;101633.22;;;5.88;62.77
45040;BME280;30778;53.574;7.770;2022-11-10T05:02:06;101632.03;;;6.24;61.29
45040;BME280;30778;53.574;7.770;2022-11-10T05:04:51;101626.41;;;5.76;63.08
45040;BME280;30778;53.574;7.770;2022-11-10T05:07:34;101624.94;;;6.43;61.33
45040;BME280;30778;53.574;7.770;2022-11-10T05:10:19;101627.69;;;6.29;61.74
45040;BME280;30778;53.574;7.770;2022-11-10T05:13:04;101624.41;;;6.07;62.66
45040;BME280;30778;53.574;7.770;2022-11-10T05:15:48;101634.59;;;6.32;61.57
45040;BME280;30778;53.574;7.770;2022-11-10T05:18:35;101617.13;;;6.46;61.19
45040;BME280;30778;53.574;7.770;2022-11-10T05:21:19;101615.84;;;5.98;62.57
45040;BME280;30778;53.574;7.770;2022-11-10T05:24:03;101620.91;;;6.12;62.20
45040;BME280;30778;53.574;7.770;2022-11-10T05:26:47;101623.69;;;5.90;62.69
45040;BME280;30778;53.574;7.770;2022-11-10T05:29:31;101636.38;;;6.28;61.62
45040;BME280;30778;53.574;7.770;2022-11-10T05:32:15;101645.13;;;6.14;62.20
45040;BME280;30778;53.574;7.770;2022-11-10T05:34:59;101645.28;;;5.94;63.05
45040;BME280;30778;53.574;7.770;2022-11-10T05:37:43;101646.81;;;6.15;62.63
45040;BME280;30778;53.574;7.770;2022-11-10T05:40:27;101664.31;;;5.94;62.83
45040;BME280;30778;53.574;7.770;2022-11-10T05:43:12;101665.19;;;5.90;63.34
45040;BME280;30778;53.574;7.770;2022-11-10T05:45:56;101660.00;;;5.93;63.35
45040;BME280;30778;53.574;7.770;2022-11-10T05:48:40;101667.44;;;6.35;61.54
45040;BME280;30778;53.574;7.770;2022-11-10T05:51:24;101666.69;;;6.22;61.89
45040;BME280;30778;53.574;7.770;2022-11-10T05:54:08;101671.72;;;6.40;61.57
45040;BME280;30778;53.574;7.770;2022-11-10T05:56:52;101686.69;;;6.09;62.69
45040;BME280;30778;53.574;7.770;2022-11-10T05:59:36;101683.81;;;6.43;61.54
45040;BME280;30778;53.574;7.770;2022-11-10T06:02:20;101695.06;;;6.45;62.01
45040;BME280;30778;53.574;7.770;2022-11-10T06:05:05;101694.31;;;6.26;62.84
45040;BME280;30778;53.574;7.770;2022-11-10T06:07:49;101706.47;;;6.21;62.68
45040;BME280;30778;53.574;7.770;2022-11-10T06:10:34;101712.00;;;5.75;64.01
45040;BME280;30778;53.574;7.770;2022-11-10T06:13:19;101713.47;;;6.13;62.91
45040;BME280;30778;53.574;7.770;2022-11-10T06:16:03;101712.66;;;6.06;63.09
45040;BME280;30778;53.574;7.770;2022-11-10T06:18:47;101723.91;;;6.05;62.97
45040;BME280;30778;53.574;7.770;2022-11-10T06:21:31;101715.78;;;6.51;61.37
45040;BME280;30778;53.574;7.770;2022-11-10T06:24:15;101727.97;;;6.41;61.54
45040;BME280;30778;53.574;7.770;2022-11-10T06:26:59;101728.38;;;5.84;63.32
45040;BME280;30778;53.574;7.770;2022-11-10T06:29:43;101721.16;;;6.31;62.58
45040;BME280;30778;53.574;7.770;2022-11-10T06:32:27;101720.84;;;6.62;61.02
45040;BME280;30778;53.574;7.770;2022-11-10T06:35:12;101718.13;;;6.74;60.52
45040;BME280;30778;53.574;7.770;2022-11-10T06:38:04;101731.75;;;5.99;63.72
45040;BME280;30778;53.574;7.770;2022-11-10T06:40:48;101742.88;;;6.16;62.77
45040;BME280;30778;53.574;7.770;2022-11-10T06:43:32;101747.16;;;6.22;63.27
45040;BME280;30778;53.574;7.770;2022-11-10T06:46:16;101747.03;;;6.37;62.13
45040;BME280;30778;53.574;7.770;2022-11-10T06:49:00;101757.44;;;6.37;62.72
45040;BME280;30778;53.574;7.770;2022-11-10T06:51:44;101754.91;;;6.28;62.84
45040;BME280;30778;53.574;7.770;2022-11-10T06:54:28;101758.44;;;6.15;63.17
45040;BME280;30778;53.574;7.770;2022-11-10T06:57:12;101774.75;;;6.40;62.29
45040;BME280;30778;53.574;7.770;2022-11-10T06:59:56;101774.94;;;6.09;63.82
45040;BME280;30778;53.574;7.770;2022-11-10T07:02:39;101785.06;;;6.47;62.12
45040;BME280;30778;53.574;7.770;2022-11-10T07:05:23;101781.63;;;6.44;62.58
45040;BME280;30778;53.574;7.770;2022-11-10T07:08:10;101796.25;;;6.56;61.65
45040;BME280;30778;53.574;7.770;2022-11-10T07:10:56;101800.28;;;6.87;61.07
45040;BME280;30778;53.574;7.770;2022-11-10T07:13:41;101809.47;;;6.19;63.31
45040;BME280;30778;53.574;7.770;2022-11-10T07:16:25;101831.75;;;6.54;62.26
45040;BME280;30778;53.574;7.770;2022-11-10T07:19:10;101835.31;;;6.42;62.70
45040;BME280;30778;53.574;7.770;2022-11-10T07:21:54;101834.25;;;6.69;61.45
45040;BME280;30778;53.574;7.770;2022-11-10T07:24:38;101834.34;;;6.57;61.95
45040;BME280;30778;53.574;7.770;2022-11-10T07:27:22;101834.03;;;6.90;60.76
45040;BME280;30778;53.574;7.770;2022-11-10T07:30:07;101817.69;;;6.81;60.71
45040;BME280;30778;53.574;7.770;2022-11-10T07:32:59;101811.97;;;6.42;62.13
45040;BME280;30778;53.574;7.770;2022-11-10T07:35:44;101820.28;;;6.79;60.91
45040;BME280;30778;53.574;7.770;2022-11-10T07:38:33;101817.22;;;6.29;62.81
45040;BME280;30778;53.574;7.770;2022-11-10T07:41:17;101813.25;;;6.90;61.99
45040;BME280;30778;53.574;7.770;2022-11-10T07:44:01;101809.38;;;7.30;59.96
45040;BME280;30778;53.574;7.770;2022-11-10T07:46:46;101822.97;;;7.55;59.73
45040;BME280;30778;53.574;7.770;2022-11-10T07:49:29;101827.94;;;7.77;59.11
45040;BME280;30778;53.574;7.770;2022-11-10T07:52:13;101844.56;;;8.28;58.08
45040;BME280;30778;53.574;7.770;2022-11-10T07:54:57;101830.91;;;8.68;56.45
45040;BME280;30778;53.574;7.770;2022-11-10T07:57:41;101842.03;;;8.81;55.44
45040;BME280;30778;53.574;7.770;2022-11-10T08:00:25;101841.31;;;8.68;56.23
45040;BME280;30778;53.574;7.770;2022-11-10T08:05:55;101846.34;;;10.14;52.78
45040;BME280;30778;53.574;7.770;2022-11-10T08:08:39;101846.44;;;10.11;52.88
45040;BME280;30778;53.574;7.770;2022-11-10T08:11:23;101840.88;;;9.43;53.49
45040;BME280;30778;53.574;7.770;2022-11-10T08:14:07;101849.00;;;10.13;52.23
45040;BME280;30778;53.574;7.770;2022-11-10T08:16:51;101858.59;;;10.12;53.92
45040;BME280;30778;53.574;7.770;2022-11-10T08:19:36;101862.22;;;10.05;52.70
45040;BME280;30778;53.574;7.770;2022-11-10T08:22:20;101857.84;;;11.15;49.83
45040;BME280;30778;53.574;7.770;2022-11-10T08:25:04;101862.09;;;11.52;49.95
45040;BME280;30778;53.574;7.770;2022-11-10T08:27:48;101859.59;;;12.08;47.60
45040;BME280;30778;53.574;7.770;2022-11-10T08:30:40;101864.59;;;11.55;48.84
45040;BME280;30778;53.574;7.770;2022-11-10T08:33:24;101865.75;;;11.13;51.46
45040;BME280;30778;53.574;7.770;2022-11-10T08:36:08;101857.56;;;11.88;49.46
45040;BME280;30778;53.574;7.770;2022-11-10T08:38:52;101875.97;;;10.88;51.60
45040;BME280;30778;53.574;7.770;2022-11-10T08:41:36;101870.84;;;10.48;52.48
45040;BME280;30778;53.574;7.770;2022-11-10T08:44:20;101879.38;;;9.31;54.67
45040;BME280;30778;53.574;7.770;2022-11-10T08:47:04;101878.88;;;9.57;54.37
45040;BME280;30778;53.574;7.770;2022-11-10T08:49:48;101882.16;;;8.71;57.42
45040;BME280;30778;53.574;7.770;2022-11-10T08:52:32;101879.88;;;9.04;56.39
45040;BME280;30778;53.574;7.770;2022-11-10T08:55:17;101884.22;;;9.50;55.79
45040;BME280;30778;53.574;7.770;2022-11-10T08:58:03;101886.13;;;9.42;54.83
45040;BME280;30778;53.574;7.770;2022-11-10T09:00:47;101889.91;;;9.25;55.22
45040;BME280;30778;53.574;7.770;2022-11-10T09:03:31;101893.88;;;9.46;55.45
45040;BME280;30778;53.574;7.770;2022-11-10T09:06:15;101894.50;;;9.59;54.76
45040;BME280;30778;53.574;7.770;2022-11-10T09:08:59;101895.28;;;9.63;54.15
45040;BME280;30778;53.574;7.770;2022-11-10T09:11:43;101902.59;;;8.97;56.23
45040;BME280;30778;53.574;7.770;2022-11-10T09:14:27;101905.44;;;9.31;55.89
45040;BME280;30778;53.574;7.770;2022-11-10T09:17:11;101905.78;;;9.13;55.88
45040;BME280;30778;53.574;7.770;2022-11-10T09:19:56;101908.91;;;8.82;56.78
45040;BME280;30778;53.574;7.770;2022-11-10T09:22:40;101914.53;;;9.10;56.41
45040;BME280;30778;53.574;7.770;2022-11-10T09:25:24;101903.19;;;8.55;58.27
45040;BME280;30778;53.574;7.770;2022-11-10T09:28:12;101911.44;;;8.28;58.81
45040;BME280;30778;53.574;7.770;2022-11-10T09:30:57;101913.41;;;8.74;57.59
45040;BME280;30778;53.574;7.770;2022-11-10T09:33:41;101913.97;;;8.91;57.46
45040;BME280;30778;53.574;7.770;2022-11-10T09:36:25;101922.88;;;9.29;56.30
45040;BME280;30778;53.574;7.770;2022-11-10T09:39:09;101923.75;;;9.30;56.55
45040;BME280;30778;53.574;7.770;2022-11-10T09:41:53;101915.53;;;9.50;55.42
45040;BME280;30778;53.574;7.770;2022-11-10T09:44:49;101928.31;;;9.17;57.06
45040;BME280;30778;53.574;7.770;2022-11-10T09:47:40;101937.88;;;9.65;55.72
45040;BME280;30778;53.574;7.770;2022-11-10T09:50:38;101936.59;;;9.40;55.62
45040;BME280;30778;53.574;7.770;2022-11-10T09:53:40;101955.38;;;9.61;55.59
45040;BME280;30778;53.574;7.770;2022-11-10T09:56:36;101949.91;;;9.73;54.83
45040;BME280;30778;53.574;7.770;2022-11-10T09:59:25;101961.38;;;10.11;54.51
45040;BME280;30778;53.574;7.770;2022-11-10T10:02:26;101953.44;;;10.16;54.02
45040;BME280;30778;53.574;7.770;2022-11-10T10:05:53;101959.03;;;9.97;54.71
45040;BME280;30778;53.574;7.770;2022-11-10T10:24:02;101972.47;;;9.77;56.03
45040;BME280;30778;53.574;7.770;2022-11-10T10:26:50;101971.81;;;9.65;55.21
45040;BME280;30778;53.574;7.770;2022-11-10T10:29:39;101972.69;;;9.65;55.31
45040;BME280;30778;53.574;7.770;2022-11-10T10:32:25;101979.41;;;10.64;53.46
45040;BME280;30778;53.574;7.770;2022-11-10T10:35:16;101984.88;;;10.11;54.37
45040;BME280;30778;53.574;7.770;2022-11-10T10:38:01;102007.28;;;10.23;54.78
45040;BME280;30778;53.574;7.770;2022-11-10T10:40:49;102000.44;;;9.71;55.19
45040;BME280;30778;53.574;7.770;2022-11-10T10:43:33;101996.91;;;10.60;53.66
45040;BME280;30778;53.574;7.770;2022-11-10T10:46:17;102003.78;;;9.77;55.52
45040;BME280;30778;53.574;7.770;2022-11-10T10:49:13;102011.38;;;9.91;55.76
45040;BME280;30778;53.574;7.770;2022-11-10T10:52:15;102014.75;;;9.98;55.78
45040;BME280;30778;53.574;7.770;2022-11-10T10:55:02;102010.38;;;9.49;56.58
45040;BME280;30778;53.574;7.770;2022-11-10T10:57:58;102010.09;;;9.66;56.25
45040;BME280;30778;53.574;7.770;2022-11-10T11:00:44;102020.22;;;8.77;58.47
45040;BME280;30778;53.574;7.770;2022-11-10T11:03:43;102021.91;;;9.88;56.48
45040;BME280;30778;53.574;7.770;2022-11-10T11:06:32;102025.81;;;9.10;58.09
45040;BME280;30778;53.574;7.770;2022-11-10T11:09:48;102018.31;;;10.37;54.92
45040;BME280;30778;53.574;7.770;2022-11-10T11:12:31;102012.16;;;10.40;55.17
45040;BME280;30778;53.574;7.770;2022-11-10T11:15:27;102021.16;;;9.82;56.26
45040;BME280;30778;53.574;7.770;2022-11-10T11:18:14;102015.59;;;10.00;55.80
45040;BME280;30778;53.574;7.770;2022-11-10T11:24:14;102029.44;;;10.46;55.35
45040;BME280;30778;53.574;7.770;2022-11-10T11:27:08;102035.09;;;9.80;56.30
45040;BME280;30778;53.574;7.770;2022-11-10T11:33:16;102045.66;;;10.63;54.33
45040;BME280;30778;53.574;7.770;2022-11-10T11:45:17;102055.16;;;10.67;54.93
45040;BME280;30778;53.574;7.770;2022-11-10T12:00:16;102049.84;;;10.70;54.32
45040;BME280;30778;53.574;7.770;2022-11-10T12:09:44;102074.63;;;10.94;54.74
45040;BME280;30778;53.574;7.770;2022-11-10T12:16:16;102077.63;;;10.76;54.64
45040;BME280;30778;53.574;7.770;2022-11-10T12:18:53;102073.00;;;11.62;52.33
45040;BME280;30778;53.574;7.770;2022-11-10T12:27:27;102072.59;;;11.44;52.61
45040;BME280;30778;53.574;7.770;2022-11-10T12:30:15;102087.25;;;11.52;52.78
45040;BME280;30778;53.574;7.770;2022-11-10T12:36:11;102094.41;;;11.06;53.72
45040;BME280;30778;53.574;7.770;2022-11-10T12:42:02;102099.66;;;10.20;55.93
45040;BME280;30778;53.574;7.770;2022-11-10T12:45:05;102117.53;;;10.42;55.24
45040;BME280;30778;53.574;7.770;2022-11-10T12:47:51;102105.59;;;10.29;55.27
45040;BME280;30778;53.574;7.770;2022-11-10T12:50:57;102099.94;;;10.50;55.38
45040;BME280;30778;53.574;7.770;2022-11-10T12:53:45;102092.13;;;10.92;53.77
45040;BME280;30778;53.574;7.770;2022-11-10T12:56:39;102100.34;;;10.72;54.69
45040;BME280;30778;53.574;7.770;2022-11-10T12:59:29;102082.28;;;11.41;52.98
45040;BME280;30778;53.574;7.770;2022-11-10T13:02:33;102084.88;;;10.63;54.99
45040;BME280;30778;53.574;7.770;2022-11-10T13:05:41;102081.72;;;10.89;54.33
45040;BME280;30778;53.574;7.770;2022-11-10T13:08:33;102076.66;;;10.80;55.16
45040;BME280;30778;53.574;7.770;2022-11-10T13:11:25;102073.81;;;10.92;54.61
45040;BME280;30778;53.574;7.770;2022-11-10T13:14:27;102075.50;;;11.32;53.68
45040;BME280;30778;53.574;7.770;2022-11-10T13:23:31;102086.19;;;11.59;53.13
45040;BME280;30778;53.574;7.770;2022-11-10T13:29:52;102092.94;;;11.33;53.31
45040;BME280;30778;53.574;7.770;2022-11-10T13:32:36;102093.13;;;11.24;53.75
45040;BME280;30778;53.574;7.770;2022-11-10T13:41:24;102078.81;;;11.40;53.44
45040;BME280;30778;53.574;7.770;2022-11-10T13:44:39;102077.81;;;10.67;55.17
45040;BME280;30778;53.574;7.770;2022-11-10T13:47:42;102078.72;;;11.79;52.58
45040;BME280;30778;53.574;7.770;2022-11-10T13:50:38;102075.84;;;11.17;53.98
45040;BME280;30778;53.574;7.770;2022-11-10T13:59:30;102097.25;;;11.70;52.96
45040;BME280;30778;53.574;7.770;2022-11-10T14:08:15;102109.97;;;10.72;55.51
45040;BME280;30778;53.574;7.770;2022-11-10T14:11:11;102100.53;;;11.07;54.40
45040;BME280;30778;53.574;7.770;2022-11-10T14:17:14;102119.22;;;10.88;54.94
45040;BME280;30778;53.574;7.770;2022-11-10T14:19:59;102113.84;;;10.96;55.08
45040;BME280;30778;53.574;7.770;2022-11-10T14:22:44;102119.66;;;10.67;55.75
45040;BME280;30778;53.574;7.770;2022-11-10T14:25:34;102130.59;;;10.87;55.16
45040;BME280;30778;53.574;7.770;2022-11-10T14:28:27;102148.34;;;10.70;55.67
45040;BME280;30778;53.574;7.770;2022-11-10T14:31:19;102134.06;;;10.44;56.07
45040;BME280;30778;53.574;7.770;2022-11-10T14:34:04;102141.41;;;10.69;55.46
45040;BME280;30778;53.574;7.770;2022-11-10T14:36:53;102136.00;;;10.78;55.03
45040;BME280;30778;53.574;7.770;2022-11-10T14:39:40;102129.97;;;11.15;53.36
45040;BME280;30778;53.574;7.770;2022-11-10T14:42:27;102125.25;;;10.93;53.96
45040;BME280;30778;53.574;7.770;2022-11-10T14:45:18;102130.25;;;10.59;55.05
45040;BME280;30778;53.574;7.770;2022-11-10T14:48:16;102144.69;;;11.22;53.43
45040;BME280;30778;53.574;7.770;2022-11-10T14:51:12;102150.88;;;11.18;53.33
45040;BME280;30778;53.574;7.770;2022-11-10T14:53:57;102154.81;;;11.36;53.00
45040;BME280;30778;53.574;7.770;2022-11-10T14:56:41;102168.94;;;11.29;52.87
45040;BME280;30778;53.574;7.770;2022-11-10T14:59:25;102177.13;;;10.70;54.87
45040;BME280;30778;53.574;7.770;2022-11-10T15:02:14;102183.09;;;10.30;55.96
45040;BME280;30778;53.574;7.770;2022-11-10T15:05:00;102191.91;;;11.16;53.90
45040;BME280;30778;53.574;7.770;2022-11-10T15:07:44;102205.03;;;10.68;55.10
45040;BME280;30778;53.574;7.770;2022-11-10T15:22:26;102174.88;;;10.95;54.08
45040;BME280;30778;53.574;7.770;2022-11-10T15:25:15;102165.78;;;10.71;54.27
45040;BME280;30778;53.574;7.770;2022-11-10T15:28:17;102181.50;;;10.68;54.36
45040;BME280;30778;53.574;7.770;2022-11-10T15:31:07;102195.13;;;9.89;57.15
45040;BME280;30778;53.574;7.770;2022-11-10T15:33:58;102196.22;;;10.27;55.41
45040;BME280;30778;53.574;7.770;2022-11-10T15:36:43;102203.91;;;10.81;54.25
45040;BME280;30778;53.574;7.770;2022-11-10T15:39:27;102206.19;;;10.99;53.67
45040;BME280;30778;53.574;7.770;2022-11-10T15:42:20;102198.38;;;10.53;54.81
45040;BME280;30778;53.574;7.770;2022-11-10T15:45:05;102196.53;;;10.56;54.60
45040;BME280;30778;53.574;7.770;2022-11-10T15:47:50;102207.84;;;10.09;55.85
45040;BME280;30778;53.574;7.770;2022-11-10T15:50:35;102214.81;;;10.59;54.89
45040;BME280;30778;53.574;7.770;2022-11-10T15:53:24;102213.50;;;10.34;55.15
45040;BME280;30778;53.574;7.770;2022-11-10T15:56:15;102210.84;;;10.85;54.16
45040;BME280;30778;53.574;7.770;2022-11-10T15:59:00;102212.84;;;10.21;55.64
45040;BME280;30778;53.574;7.770;2022-11-10T16:01:45;102220.25;;;10.47;55.00
45040;BME280;30778;53.574;7.770;2022-11-10T16:04:29;102214.25;;;10.42;55.37
45040;BME280;30778;53.574;7.770;2022-11-10T16:07:13;102202.97;;;10.40;55.33
45040;BME280;30778;53.574;7.770;2022-11-10T16:09:57;102213.69;;;10.71;54.62
45040;BME280;30778;53.574;7.770;2022-11-10T16:12:41;102172.53;;;9.85;56.48
45040;BME280;30778;53.574;7.770;2022-11-10T16:15:25;102222.69;;;10.56;54.65
45040;BME280;30778;53.574;7.770;2022-11-10T16:18:18;102237.00;;;10.35;55.66
45040;BME280;30778;53.574;7.770;2022-11-10T16:21:03;102241.50;;;10.29;55.30
45040;BME280;30778;53.574;7.770;2022-11-10T16:23:47;102251.44;;;10.58;55.01
45040;BME280;30778;53.574;7.770;2022-11-10T16:26:32;102230.00;;;10.37;55.46
45040;BME280;30778;53.574;7.770;2022-11-10T16:29:18;102236.84;;;9.92;56.98
45040;BME280;30778;53.574;7.770;2022-11-10T16:32:02;102250.25;;;10.25;55.99
45040;BME280;30778;53.574;7.770;2022-11-10T16:34:46;102241.25;;;10.41;55.26